createdAt,value
2017-11-28T00:01:59.465Z,0.75
2017-11-28T00:04:28.670Z,0.77
2017-11-28T00:06:57.116Z,0.80
2017-11-28T00:09:24.868Z,0.60
2017-11-28T00:11:53.520Z,0.93
2017-11-28T00:14:21.708Z,0.55
2017-11-28T00:16:50.890Z,0.70
2017-11-28T00:19:20.008Z,0.80
2017-11-28T00:21:47.929Z,0.70
2017-11-28T00:24:16.050Z,0.97
2017-11-28T00:26:43.834Z,1.40
2017-11-28T00:29:12.649Z,0.93
2017-11-28T00:31:41.007Z,1.20
2017-11-28T00:34:10.485Z,0.95
2017-11-28T00:36:39.227Z,0.70
2017-11-28T00:39:07.139Z,0.70
2017-11-28T00:41:35.683Z,1.10
2017-11-28T00:44:04.095Z,1.37
2017-11-28T00:46:33.281Z,0.90
2017-11-28T00:49:01.351Z,1.30
2017-11-28T00:51:29.253Z,1.20
2017-11-28T00:53:57.056Z,0.87
2017-11-28T00:56:25.144Z,0.93
2017-11-28T00:58:53.536Z,1.37
2017-11-28T01:01:21.963Z,1.10
2017-11-28T01:03:50.109Z,0.80
2017-11-28T01:06:18.797Z,0.73
2017-11-28T01:08:47.171Z,0.93
2017-11-28T01:11:15.648Z,0.70
2017-11-28T01:13:44.011Z,1.00
2017-11-28T01:16:11.780Z,0.67
2017-11-28T01:18:40.185Z,0.70
2017-11-28T01:21:08.901Z,1.00
2017-11-28T01:23:37.588Z,0.80
2017-11-28T01:26:05.628Z,0.80
2017-11-28T01:28:34.322Z,0.85
2017-11-28T01:31:02.543Z,0.93
2017-11-28T01:33:31.356Z,1.45
2017-11-28T01:35:59.141Z,0.90
2017-11-28T01:38:26.904Z,0.93
2017-11-28T01:40:54.945Z,1.17
2017-11-28T01:43:22.977Z,1.30
2017-11-28T01:45:51.029Z,1.55
2017-11-28T01:48:19.510Z,1.50
2017-11-28T01:50:47.553Z,1.00
2017-11-28T01:53:15.586Z,1.12
2017-11-28T01:55:43.637Z,0.95
2017-11-28T01:58:11.674Z,1.00
2017-11-28T02:00:39.444Z,2.30
2017-11-28T02:03:07.833Z,0.95
2017-11-28T02:05:35.873Z,1.27
2017-11-28T02:08:04.722Z,1.70
2017-11-28T02:10:32.909Z,1.95
2017-11-28T02:13:01.273Z,1.95
2017-11-28T02:15:29.308Z,2.10
2017-11-28T02:17:57.333Z,1.42
2017-11-28T02:20:25.399Z,1.45
2017-11-28T02:22:53.944Z,1.53
2017-11-28T02:25:21.729Z,1.70
2017-11-28T02:27:49.515Z,2.33
2017-11-28T02:30:17.460Z,1.33
2017-11-28T02:32:45.508Z,3.95
2017-11-28T02:35:13.281Z,1.23
2017-11-28T02:37:41.430Z,1.45
2017-11-28T02:40:09.199Z,3.60
2017-11-28T02:42:38.005Z,2.55
2017-11-28T02:45:05.773Z,1.83
2017-11-28T02:47:33.674Z,1.60
2017-11-28T02:50:12.560Z,1.50
2017-11-28T02:52:40.521Z,3.10
2017-11-28T02:55:13.400Z,2.47
2017-11-28T02:57:41.189Z,2.03
2017-11-28T03:00:08.960Z,1.30
2017-11-28T03:02:36.736Z,1.30
2017-11-28T03:05:04.671Z,1.27
2017-11-28T03:07:38.989Z,1.67
2017-11-28T03:10:37.212Z,2.10
2017-11-28T03:13:06.781Z,1.50
2017-11-28T03:15:41.493Z,6.17
2017-11-28T03:18:11.657Z,1.57
2017-11-28T03:20:39.836Z,2.08
2017-11-28T03:23:12.428Z,1.43
2017-11-28T03:25:40.257Z,1.70
2017-11-28T03:28:21.622Z,2.40
2017-11-28T03:30:52.382Z,2.23
2017-11-28T03:33:20.152Z,1.57
2017-11-28T03:35:47.928Z,2.40
2017-11-28T03:38:15.930Z,2.83
2017-11-28T03:40:44.468Z,2.17
2017-11-28T03:43:12.398Z,2.63
2017-11-28T03:59:04.900Z,1.67
2017-11-28T04:01:32.814Z,1.87
2017-11-28T04:04:00.373Z,2.30
2017-11-28T04:06:28.159Z,2.77
2017-11-28T04:08:55.933Z,6.40
2017-11-28T04:11:23.700Z,3.13
2017-11-28T04:13:51.472Z,1.80
2017-11-28T04:16:19.241Z,2.70
2017-11-28T04:18:46.967Z,1.70
2017-11-28T04:21:15.704Z,2.00
2017-11-28T04:23:43.473Z,3.43
2017-11-28T04:26:11.392Z,1.50
2017-11-28T04:28:39.165Z,2.30
2017-11-28T04:31:07.049Z,3.53
2017-11-28T04:33:34.920Z,1.70
2017-11-28T04:36:02.713Z,2.50
2017-11-28T04:38:30.562Z,1.70
2017-11-28T04:40:59.564Z,3.22
2017-11-28T04:43:27.336Z,2.83
2017-11-28T04:45:55.113Z,2.83
2017-11-28T04:48:22.937Z,4.30
2017-11-28T04:50:50.716Z,2.70
2017-11-28T04:53:19.415Z,1.90
2017-11-28T04:55:47.188Z,1.87
2017-11-28T04:58:15.228Z,17.05
2017-11-28T05:00:44.026Z,3.85
2017-11-28T05:03:11.805Z,1.57
2017-11-28T05:05:39.564Z,2.57
2017-11-28T05:08:07.373Z,2.17
2017-11-28T05:10:35.410Z,2.40
2017-11-28T05:13:03.223Z,3.13
2017-11-28T05:15:31.772Z,4.97
2017-11-28T05:18:02.329Z,3.00
2017-11-28T05:20:30.905Z,3.83
2017-11-28T05:22:59.541Z,2.13
2017-11-28T05:25:28.368Z,2.20
2017-11-28T05:27:55.956Z,3.23
2017-11-28T05:30:24.584Z,3.53
2017-11-28T05:32:53.394Z,3.12
2017-11-28T05:35:21.412Z,4.20
2017-11-28T05:37:49.216Z,3.00
2017-11-28T05:40:16.993Z,5.03
2017-11-28T05:42:45.250Z,1.50
2017-11-28T05:45:13.002Z,3.40
2017-11-28T05:47:40.856Z,2.73
2017-11-28T05:50:08.920Z,1.75
2017-11-28T05:52:36.996Z,3.67
2017-11-28T05:55:05.517Z,2.17
2017-11-28T05:57:34.580Z,4.43
2017-11-28T06:00:02.934Z,1.60
2017-11-28T06:02:31.477Z,1.90
2017-11-28T06:05:00.267Z,2.67
2017-11-28T06:07:28.057Z,1.70
2017-11-28T06:09:55.824Z,1.73
2017-11-28T06:12:23.866Z,2.10
2017-11-28T06:14:51.642Z,1.63
2017-11-28T06:17:20.631Z,2.80
2017-11-28T06:19:48.396Z,1.40
2017-11-28T06:22:17.193Z,1.50
2017-11-28T06:24:46.094Z,1.50
2017-11-28T06:27:14.134Z,1.50
2017-11-28T06:29:42.292Z,1.27
2017-11-28T06:32:10.324Z,1.92
2017-11-28T06:34:38.403Z,1.40
2017-11-28T06:37:07.505Z,1.85
2017-11-28T06:39:36.499Z,3.62
2017-11-28T06:42:08.984Z,2.53
2017-11-28T06:44:37.102Z,2.15
2017-11-28T06:47:05.724Z,3.65
2017-11-28T06:49:33.761Z,1.98
2017-11-28T06:52:02.563Z,2.08
2017-11-28T06:54:31.460Z,1.45
2017-11-28T06:57:01.769Z,1.45
2017-11-28T06:59:30.576Z,2.35
2017-11-28T07:01:58.629Z,5.03
2017-11-28T07:04:27.436Z,2.35
2017-11-28T07:06:56.334Z,4.32
2017-11-28T07:09:24.424Z,9.27
2017-11-28T07:11:52.209Z,1.67
2017-11-28T07:14:20.732Z,1.60
2017-11-28T07:16:48.606Z,1.57
2017-11-28T07:19:17.405Z,2.15
2017-11-28T07:21:45.172Z,1.03
2017-11-28T07:24:13.014Z,1.50
2017-11-28T07:26:40.814Z,1.03
2017-11-28T07:29:08.574Z,1.30
2017-11-28T07:31:36.395Z,1.40
2017-11-28T07:34:04.980Z,2.27
2017-11-28T07:36:33.039Z,2.08
2017-11-28T07:39:01.086Z,0.90
2017-11-28T07:41:29.125Z,1.58
2017-11-28T07:43:58.597Z,2.35
2017-11-28T07:46:26.661Z,1.20
2017-11-28T07:48:54.948Z,1.53
2017-11-28T07:51:24.242Z,1.90
2017-11-28T07:53:52.896Z,1.30
2017-11-28T07:56:21.862Z,1.43
2017-11-28T07:58:50.078Z,0.97
2017-11-28T08:01:18.673Z,0.97
2017-11-28T08:03:46.437Z,3.20
2017-11-28T08:06:14.205Z,0.80
2017-11-28T08:08:41.984Z,1.00
2017-11-28T08:11:09.745Z,1.57
2017-11-28T08:13:37.368Z,1.17
2017-11-28T08:16:05.128Z,1.10
2017-11-28T08:18:32.975Z,1.00
2017-11-28T08:21:00.559Z,1.17
2017-11-28T08:23:28.472Z,1.20
2017-11-28T08:25:56.821Z,3.27
2017-11-28T08:28:24.408Z,0.63
2017-11-28T08:30:51.981Z,1.47
2017-11-28T08:33:19.565Z,1.53
2017-11-28T08:35:47.893Z,3.40
2017-11-28T08:38:15.531Z,0.70
2017-11-28T08:40:43.117Z,1.00
2017-11-28T08:43:10.697Z,0.67
2017-11-28T08:45:38.293Z,0.90
2017-11-28T08:48:05.868Z,0.60
2017-11-28T08:50:33.447Z,1.33
2017-11-28T08:53:02.232Z,0.95
2017-11-28T08:55:31.028Z,0.93
2017-11-28T08:57:58.959Z,1.60
2017-11-28T09:00:27.005Z,1.27
2017-11-28T09:02:55.073Z,0.80
2017-11-28T09:05:23.109Z,0.95
2017-11-28T09:07:51.344Z,1.17
2017-11-28T09:10:19.389Z,1.40
2017-11-28T09:12:47.356Z,1.50
2017-11-28T09:15:15.132Z,1.80
2017-11-28T09:17:42.992Z,1.00
2017-11-28T09:20:10.769Z,1.10
2017-11-28T09:22:38.546Z,1.07
2017-11-28T09:25:07.081Z,1.87
2017-11-28T09:27:34.861Z,1.07
2017-11-28T09:30:02.964Z,1.03
2017-11-28T09:32:30.849Z,0.70
2017-11-28T09:34:59.385Z,1.03
2017-11-28T09:37:27.228Z,0.80
2017-11-28T09:39:54.980Z,1.53
2017-11-28T09:42:22.752Z,1.57
2017-11-28T09:44:50.518Z,0.50
2017-11-28T09:47:19.137Z,0.97
2017-11-28T09:49:46.944Z,0.70
2017-11-28T09:52:15.496Z,0.50
2017-11-28T09:54:43.259Z,0.70
2017-11-28T09:57:11.676Z,0.87
2017-11-28T09:59:40.537Z,0.60
2017-11-28T10:02:08.315Z,1.63
2017-11-28T10:04:36.103Z,2.00
2017-11-28T10:07:04.958Z,0.60
2017-11-28T10:09:32.753Z,0.70
2017-11-28T10:12:01.958Z,0.67
2017-11-28T10:14:30.507Z,0.50
2017-11-28T10:16:58.617Z,1.57
2017-11-28T10:19:27.036Z,0.70
2017-11-28T10:21:55.174Z,1.67
2017-11-28T10:24:23.709Z,0.70
2017-11-28T10:26:51.897Z,0.60
2017-11-28T10:29:19.689Z,0.53
2017-11-28T10:31:48.237Z,0.70
2017-11-28T10:34:16.340Z,0.60
2017-11-28T10:36:44.120Z,1.00
2017-11-28T10:39:12.976Z,0.60
2017-11-28T10:41:41.115Z,0.60
2017-11-28T10:44:09.341Z,0.73
2017-11-28T10:46:38.208Z,0.60
2017-11-28T10:49:06.635Z,0.70
2017-11-28T10:51:35.196Z,3.30
2017-11-28T10:54:03.313Z,0.60
2017-11-28T10:56:31.071Z,1.73
2017-11-28T10:58:59.628Z,0.60
2017-11-28T11:01:28.486Z,1.63
2017-11-28T11:03:56.264Z,0.73
2017-11-28T11:06:24.180Z,1.37
2017-11-28T11:08:52.616Z,1.07
2017-11-28T11:11:20.376Z,0.90
2017-11-28T11:13:48.676Z,0.90
2017-11-28T11:16:16.776Z,0.70
2017-11-28T11:18:45.210Z,0.70
2017-11-28T11:21:13.305Z,1.13
2017-11-28T11:23:41.080Z,0.97
2017-11-28T11:26:09.954Z,0.90
2017-11-28T11:28:38.073Z,0.63
2017-11-28T11:31:06.183Z,0.60
2017-11-28T11:33:33.953Z,0.87
2017-11-28T11:36:02.319Z,4.53
2017-11-28T11:38:30.067Z,1.83
2017-11-28T11:40:58.497Z,0.70
2017-11-28T11:43:26.266Z,0.40
2017-11-28T11:45:54.811Z,0.73
2017-11-28T11:48:22.568Z,2.03
2017-11-28T11:50:51.191Z,1.97
2017-11-28T11:53:19.311Z,1.63
2017-11-28T11:55:47.453Z,1.10
2017-11-28T11:58:15.550Z,2.43
2017-11-28T12:00:45.087Z,1.17
2017-11-28T12:03:13.580Z,0.90
2017-11-28T12:05:41.805Z,0.60
2017-11-28T12:08:10.386Z,0.80
2017-11-28T12:10:39.573Z,0.60
2017-11-28T12:13:07.691Z,0.70
2017-11-28T12:15:35.572Z,0.53
2017-11-28T12:18:03.752Z,0.77
2017-11-28T12:20:31.856Z,0.67
2017-11-28T12:22:59.609Z,1.33
2017-11-28T12:25:27.754Z,0.67
2017-11-28T12:27:55.530Z,2.30
2017-11-28T12:30:23.652Z,2.50
2017-11-28T12:32:52.188Z,0.70
2017-11-28T12:35:20.284Z,0.70
2017-11-28T12:37:48.396Z,0.77
2017-11-28T12:40:16.932Z,0.70
2017-11-28T12:42:45.042Z,2.40
2017-11-28T12:45:13.924Z,0.50
2017-11-28T12:47:41.707Z,1.10
2017-11-28T12:50:10.576Z,1.10
2017-11-28T12:52:38.671Z,1.33
2017-11-28T12:55:07.316Z,2.00
2017-11-28T12:57:35.076Z,1.80
2017-11-28T13:00:03.573Z,1.43
2017-11-28T13:02:31.682Z,0.60
2017-11-28T13:05:00.304Z,1.40
2017-11-28T13:07:28.737Z,9.03
2017-11-28T13:09:56.838Z,5.20
2017-11-28T13:12:24.953Z,2.50
2017-11-28T13:14:53.449Z,1.80
2017-11-28T13:17:21.236Z,0.70
2017-11-28T13:19:49.360Z,2.80
2017-11-28T13:22:17.478Z,4.67
2017-11-28T13:24:46.096Z,6.20
2017-11-28T13:27:13.880Z,1.63
2017-11-28T13:29:41.650Z,0.60
2017-11-28T13:32:09.489Z,0.90
2017-11-28T13:34:37.605Z,1.10
2017-11-28T13:37:05.380Z,1.07
2017-11-28T13:39:33.826Z,0.80
2017-11-28T13:42:01.764Z,2.60
2017-11-28T13:44:30.632Z,0.60
2017-11-28T13:46:58.722Z,0.60
2017-11-28T13:49:27.912Z,0.50
2017-11-28T13:51:55.809Z,0.60
2017-11-28T13:54:23.935Z,2.23
2017-11-28T13:56:52.046Z,0.87
2017-11-28T13:59:21.266Z,0.80
2017-11-28T14:01:49.752Z,0.70
2017-11-28T14:04:18.177Z,0.80
2017-11-28T14:06:46.011Z,0.93
2017-11-28T14:09:14.450Z,2.27
2017-11-28T14:11:43.115Z,1.03
2017-11-28T14:14:11.532Z,0.83
2017-11-28T14:16:40.552Z,2.00
2017-11-28T14:19:08.154Z,1.00
2017-11-28T14:21:41.276Z,0.70
2017-11-28T14:24:14.207Z,0.80
2017-11-28T14:26:48.325Z,1.23
2017-11-28T14:29:30.798Z,1.67
2017-11-28T14:32:03.802Z,2.30
2017-11-28T14:34:32.216Z,2.40
2017-11-28T14:37:00.124Z,1.13
2017-11-28T14:39:31.166Z,0.87
2017-11-28T14:42:14.388Z,0.80
2017-11-28T14:44:58.752Z,0.60
2017-11-28T14:47:27.161Z,0.93
2017-11-28T14:49:54.760Z,0.67
2017-11-28T14:52:23.886Z,0.70
2017-11-28T14:54:57.996Z,0.70
2017-11-28T14:57:27.252Z,0.70
2017-11-28T15:00:00.505Z,0.70
2017-11-28T15:02:34.408Z,0.80
2017-11-28T15:05:08.874Z,1.00
2017-11-28T15:07:42.401Z,0.57
2017-11-28T15:10:26.644Z,0.80
2017-11-28T15:12:59.829Z,0.90
2017-11-28T15:15:32.916Z,1.13
2017-11-28T15:18:12.341Z,0.93
2017-11-28T15:20:56.051Z,0.80
2017-11-28T15:36:47.541Z,0.55
2017-11-28T15:39:15.299Z,0.70
2017-11-28T15:41:43.077Z,3.80
2017-11-28T15:44:10.836Z,1.37
2017-11-28T15:46:38.625Z,0.70
2017-11-28T15:49:07.324Z,0.60
2017-11-28T15:51:35.798Z,2.50
2017-11-28T15:54:04.356Z,1.20
2017-11-28T15:56:32.444Z,0.97
2017-11-28T15:59:00.221Z,1.30
2017-11-28T16:01:28.260Z,1.33
2017-11-28T16:03:56.649Z,2.60
2017-11-28T16:06:24.409Z,1.63
2017-11-28T16:08:52.798Z,1.55
2017-11-28T16:11:21.162Z,0.90
2017-11-28T16:13:49.637Z,1.70
2017-11-28T16:16:17.416Z,1.07
2017-11-28T16:18:46.218Z,1.35
2017-11-28T16:21:14.934Z,2.20
2017-11-28T16:23:42.998Z,2.33
2017-11-28T16:26:11.291Z,7.37
2017-11-28T16:28:39.065Z,1.40
2017-11-28T16:31:06.838Z,2.13
2017-11-28T16:33:35.304Z,1.47
2017-11-28T16:36:03.364Z,1.90
2017-11-28T16:38:31.421Z,1.20
2017-11-28T16:40:59.805Z,1.67
2017-11-28T16:43:28.174Z,1.60
2017-11-28T16:45:56.232Z,1.40
2017-11-28T16:48:24.953Z,1.10
2017-11-28T16:50:53.366Z,1.83
2017-11-28T16:53:22.539Z,2.15
2017-11-28T16:55:50.584Z,1.65
2017-11-28T16:58:18.644Z,2.00
2017-11-28T17:00:46.701Z,1.77
2017-11-28T17:03:14.755Z,2.00
2017-11-28T17:05:43.896Z,1.85
2017-11-28T17:08:11.948Z,1.52
2017-11-28T17:10:40.679Z,1.80
2017-11-28T17:13:08.763Z,2.10
2017-11-28T17:15:37.476Z,1.53
2017-11-28T17:18:05.352Z,1.48
2017-11-28T17:20:34.530Z,2.00
2017-11-28T17:23:02.588Z,1.60
2017-11-28T17:25:30.961Z,1.60
2017-11-28T17:27:59.009Z,1.73
2017-11-28T17:30:27.384Z,1.60
2017-11-28T17:32:55.810Z,1.80
2017-11-28T17:35:24.177Z,2.17
2017-11-28T17:37:52.458Z,1.62
2017-11-28T17:40:21.156Z,2.10
2017-11-28T17:42:49.574Z,1.80
2017-11-28T17:45:17.621Z,2.40
2017-11-28T17:47:46.011Z,4.37
2017-11-28T17:50:14.825Z,1.60
2017-11-28T17:52:43.344Z,2.10
2017-11-28T17:55:11.756Z,2.45
2017-11-28T17:57:40.205Z,2.45
2017-11-28T18:00:08.433Z,2.35
2017-11-28T18:02:37.623Z,2.70
2017-11-28T18:05:06.784Z,2.90
2017-11-28T18:07:35.181Z,3.08
2017-11-28T18:10:03.579Z,5.93
2017-11-28T18:12:32.763Z,2.40
2017-11-28T18:15:00.824Z,2.35
2017-11-28T18:17:28.885Z,2.47
2017-11-28T18:19:58.393Z,2.80
2017-11-28T18:22:26.783Z,3.45
2017-11-28T18:24:55.153Z,4.65
2017-11-28T18:27:23.923Z,2.58
2017-11-28T18:29:52.476Z,3.08
2017-11-28T18:32:20.437Z,4.30
2017-11-28T18:34:49.957Z,2.78
2017-11-28T18:37:18.163Z,3.20
2017-11-28T18:39:46.373Z,3.30
2017-11-28T18:42:14.572Z,3.75
2017-11-28T18:44:43.770Z,3.25
2017-11-28T18:47:12.597Z,2.53
2017-11-28T18:49:40.633Z,3.00
2017-11-28T18:52:09.893Z,3.85
2017-11-28T18:54:38.288Z,3.40
2017-11-28T18:57:07.017Z,3.22
2017-11-28T18:59:35.877Z,4.93
2017-11-28T19:02:03.968Z,4.20
2017-11-28T19:04:33.128Z,3.78
2017-11-28T19:07:01.213Z,4.07
2017-11-28T19:09:29.451Z,3.62
2017-11-28T19:11:57.834Z,3.92
2017-11-28T19:14:25.876Z,3.62
2017-11-28T19:16:54.728Z,3.70
2017-11-28T19:19:22.796Z,3.92
2017-11-28T19:21:51.183Z,3.72
2017-11-28T19:24:20.033Z,3.60
2017-11-28T19:26:48.565Z,3.78
2017-11-28T19:29:17.474Z,4.20
2017-11-28T19:31:46.613Z,4.30
2017-11-28T19:34:15.064Z,5.40
2017-11-28T19:36:44.529Z,3.60
2017-11-28T19:39:12.604Z,3.30
2017-11-28T19:41:40.679Z,3.80
2017-11-28T19:44:08.744Z,4.05
2017-11-28T19:46:37.120Z,4.30
2017-11-28T19:49:05.186Z,4.30
2017-11-28T19:51:33.381Z,3.75
2017-11-28T19:54:01.606Z,4.45
2017-11-28T19:56:30.474Z,4.18
2017-11-28T19:58:59.081Z,3.97
2017-11-28T20:01:27.798Z,4.20
2017-11-28T20:03:56.513Z,5.12
2017-11-28T20:06:24.896Z,4.05
2017-11-28T20:08:53.348Z,4.47
2017-11-28T20:11:21.505Z,5.30
2017-11-28T20:13:50.304Z,5.25
2017-11-28T20:16:18.428Z,5.65
2017-11-28T20:18:47.008Z,5.82
2017-11-28T20:21:15.199Z,5.37
2017-11-28T20:23:44.201Z,7.32
2017-11-28T20:26:13.039Z,6.10
2017-11-28T20:28:41.427Z,5.80
2017-11-28T20:31:09.465Z,5.53
2017-11-28T20:33:37.539Z,5.40
2017-11-28T20:36:06.094Z,6.60
2017-11-28T20:38:34.329Z,7.68
2017-11-28T20:41:02.879Z,7.65
2017-11-28T20:43:31.284Z,13.23
2017-11-28T20:45:59.156Z,6.05
2017-11-28T20:48:27.231Z,5.72
2017-11-28T20:50:55.316Z,5.55
2017-11-28T20:53:23.455Z,5.68
2017-11-28T20:55:51.529Z,5.50
2017-11-28T20:58:19.919Z,5.55
2017-11-28T21:00:47.993Z,5.53
2017-11-28T21:03:16.709Z,5.37
2017-11-28T21:05:45.113Z,5.95
2017-11-28T21:08:14.283Z,6.90
2017-11-28T21:10:42.763Z,6.35
2017-11-28T21:13:11.457Z,5.60
2017-11-28T21:15:39.841Z,5.20
2017-11-28T21:18:07.900Z,5.95
2017-11-28T21:20:36.832Z,5.55
2017-11-28T21:23:06.314Z,5.97
2017-11-28T21:25:34.714Z,5.53
2017-11-28T21:28:03.585Z,5.45
2017-11-28T21:30:32.317Z,5.62
2017-11-28T21:33:01.114Z,6.00
2017-11-28T21:35:30.388Z,5.93
2017-11-28T21:37:59.537Z,6.05
2017-11-28T21:40:27.917Z,6.57
2017-11-28T21:42:55.977Z,6.15
2017-11-28T21:45:24.389Z,6.18
2017-11-28T21:47:52.768Z,5.97
2017-11-28T21:50:20.801Z,6.60
2017-11-28T21:52:49.646Z,7.62
2017-11-28T21:55:17.693Z,6.62
2017-11-28T21:57:45.774Z,6.35
2017-11-28T22:00:14.305Z,5.53
2017-11-28T22:02:43.808Z,7.50
2017-11-28T22:05:13.513Z,6.45
2017-11-28T22:07:42.677Z,7.40
2017-11-28T22:10:11.388Z,7.10
2017-11-28T22:12:39.816Z,5.85
2017-11-28T22:15:08.633Z,6.10
2017-11-28T22:17:37.064Z,5.90
2017-11-28T22:20:05.945Z,6.47
2017-11-28T22:22:34.776Z,6.80
2017-11-28T22:25:03.028Z,7.95
2017-11-28T22:27:31.843Z,7.70
2017-11-28T22:30:00.329Z,7.45
2017-11-28T22:32:29.026Z,7.65
2017-11-28T22:34:57.091Z,7.50
2017-11-28T22:37:25.144Z,6.45
2017-11-28T22:39:53.547Z,11.73
2017-11-28T22:42:21.924Z,7.30
2017-11-28T22:44:50.871Z,8.55
2017-11-28T22:47:19.565Z,7.65
2017-11-28T22:49:49.047Z,7.25
2017-11-28T22:52:17.752Z,7.15
2017-11-28T22:54:46.605Z,7.43
2017-11-28T22:57:15.022Z,6.47
2017-11-28T22:59:44.180Z,6.97
2017-11-28T23:02:12.897Z,8.52
2017-11-28T23:04:41.612Z,8.73
2017-11-28T23:07:10.000Z,8.20
2017-11-28T23:09:38.093Z,8.65
2017-11-28T23:12:06.501Z,8.57
2017-11-28T23:14:49.384Z,10.38
2017-11-28T23:17:18.308Z,10.63
2017-11-28T23:19:46.361Z,8.60
2017-11-28T23:22:14.613Z,8.35
2017-11-28T23:24:42.671Z,8.80
2017-11-28T23:27:11.865Z,10.02
2017-11-28T23:29:40.054Z,8.73
2017-11-28T23:32:09.060Z,8.50
2017-11-28T23:34:37.203Z,7.87
2017-11-28T23:37:05.245Z,7.72
2017-11-28T23:39:34.004Z,8.10
2017-11-28T23:42:02.387Z,7.68
2017-11-28T23:44:30.831Z,7.62
2017-11-28T23:46:59.776Z,7.07
2017-11-28T23:49:28.216Z,7.40
2017-11-28T23:51:57.159Z,10.55
2017-11-28T23:54:25.737Z,6.85
2017-11-28T23:56:54.101Z,7.40
2017-11-28T23:59:22.660Z,6.80
